sensor_id;sensor_type;location;lat;lon;timestamp;P1;durP1;ratioP1;P2;durP2;ratioP2
3589;SDS011;1809;48.470;9.226;2022-10-17T00:00:39;7.80;;;1.83;;
3589;SDS011;1809;48.470;9.226;2022-10-17T00:03:04;2.13;;;2.03;;
3589;SDS011;1809;48.470;9.226;2022-10-17T00:05:30;3.03;;;1.77;;
3589;SDS011;1809;48.470;9.226;2022-10-17T00:07:55;2.00;;;1.80;;
3589;SDS011;1809;48.470;9.226;2022-10-17T00:10:21;2.90;;;1.60;;
3589;SDS011;1809;48.470;9.226;2022-10-17T00:12:47;2.03;;;1.83;;
3589;SDS011;1809;48.470;9.226;2022-10-17T00:15:16;7.83;;;1.77;;
3589;SDS011;1809;48.470;9.226;2022-10-17T00:17:42;7.10;;;2.93;;
3589;SDS011;1809;48.470;9.226;2022-10-17T00:20:08;3.47;;;3.00;;
3589;SDS011;1809;48.470;9.226;2022-10-17T00:22:33;5.03;;;3.60;;
3589;SDS011;1809;48.470;9.226;2022-10-17T00:24:59;3.73;;;3.30;;
3589;SDS011;1809;48.470;9.226;2022-10-17T00:27:24;5.10;;;3.20;;
3589;SDS011;1809;48.470;9.226;2022-10-17T00:29:50;3.23;;;2.67;;
3589;SDS011;1809;48.470;9.226;2022-10-17T00:32:16;11.10;;;2.10;;
3589;SDS011;1809;48.470;9.226;2022-10-17T00:34:42;4.70;;;2.10;;
3589;SDS011;1809;48.470;9.226;2022-10-17T00:37:08;5.27;;;2.20;;
3589;SDS011;1809;48.470;9.226;2022-10-17T00:39:34;2.97;;;2.07;;
3589;SDS011;1809;48.470;9.226;2022-10-17T00:41:59;3.63;;;1.93;;
3589;SDS011;1809;48.470;9.226;2022-10-17T00:46:53;3.00;;;1.70;;
3589;SDS011;1809;48.470;9.226;2022-10-17T00:49:18;3.10;;;2.07;;
3589;SDS011;1809;48.470;9.226;2022-10-17T00:51:46;1.77;;;1.67;;
3589;SDS011;1809;48.470;9.226;2022-10-17T00:54:15;2.27;;;2.10;;
3589;SDS011;1809;48.470;9.226;2022-10-17T00:56:43;2.37;;;2.17;;
3589;SDS011;1809;48.470;9.226;2022-10-17T00:59:11;7.83;;;2.93;;
3589;SDS011;1809;48.470;9.226;2022-10-17T01:01:42;2.27;;;2.10;;
3589;SDS011;1809;48.470;9.226;2022-10-17T01:04:15;2.00;;;1.90;;
3589;SDS011;1809;48.470;9.226;2022-10-17T01:06:42;2.90;;;2.03;;
3589;SDS011;1809;48.470;9.226;2022-10-17T01:09:07;2.43;;;2.20;;
3589;SDS011;1809;48.470;9.226;2022-10-17T01:11:41;2.10;;;2.00;;
3589;SDS011;1809;48.470;9.226;2022-10-17T01:14:22;12.73;;;2.47;;
3589;SDS011;1809;48.470;9.226;2022-10-17T01:27:55;2.60;;;2.40;;
3589;SDS011;1809;48.470;9.226;2022-10-17T01:35:50;2.40;;;2.20;;
3589;SDS011;1809;48.470;9.226;2022-10-17T01:38:23;5.40;;;2.30;;
3589;SDS011;1809;48.470;9.226;2022-10-17T01:43:46;13.97;;;2.80;;
3589;SDS011;1809;48.470;9.226;2022-10-17T01:46:29;3.73;;;2.20;;
3589;SDS011;1809;48.470;9.226;2022-10-17T01:49:00;6.10;;;3.47;;
3589;SDS011;1809;48.470;9.226;2022-10-17T01:51:40;2.30;;;2.10;;
3589;SDS011;1809;48.470;9.226;2022-10-17T01:54:31;6.37;;;3.10;;
3589;SDS011;1809;48.470;9.226;2022-10-17T01:57:08;3.63;;;2.70;;
3589;SDS011;1809;48.470;9.226;2022-10-17T01:59:40;2.27;;;2.17;;
3589;SDS011;1809;48.470;9.226;2022-10-17T02:02:09;8.23;;;2.67;;
3589;SDS011;1809;48.470;9.226;2022-10-17T02:04:38;2.50;;;2.00;;
3589;SDS011;1809;48.470;9.226;2022-10-17T02:07:06;4.03;;;2.57;;
3589;SDS011;1809;48.470;9.226;2022-10-17T02:09:32;2.23;;;2.03;;
3589;SDS011;1809;48.470;9.226;2022-10-17T02:17:24;6.27;;;2.50;;
3589;SDS011;1809;48.470;9.226;2022-10-17T02:27:49;15.00;;;2.90;;
3589;SDS011;1809;48.470;9.226;2022-10-17T02:33:11;7.03;;;1.93;;
3589;SDS011;1809;48.470;9.226;2022-10-17T02:35:44;3.10;;;2.20;;
3589;SDS011;1809;48.470;9.226;2022-10-17T02:38:14;3.40;;;2.40;;
3589;SDS011;1809;48.470;9.226;2022-10-17T02:40:42;3.73;;;2.50;;
3589;SDS011;1809;48.470;9.226;2022-10-17T02:43:10;2.23;;;2.13;;
3589;SDS011;1809;48.470;9.226;2022-10-17T02:45:37;4.53;;;2.43;;
3589;SDS011;1809;48.470;9.226;2022-10-17T02:50:42;2.30;;;2.00;;
3589;SDS011;1809;48.470;9.226;2022-10-17T02:53:43;6.73;;;2.70;;
3589;SDS011;1809;48.470;9.226;2022-10-17T02:56:24;4.80;;;2.43;;
3589;SDS011;1809;48.470;9.226;2022-10-17T02:58:54;2.20;;;2.00;;
3589;SDS011;1809;48.470;9.226;2022-10-17T03:01:23;2.60;;;1.90;;
3589;SDS011;1809;48.470;9.226;2022-10-17T03:03:50;4.73;;;2.53;;
3589;SDS011;1809;48.470;9.226;2022-10-17T03:06:15;2.87;;;2.50;;
3589;SDS011;1809;48.470;9.226;2022-10-17T03:08:41;4.70;;;2.10;;
3589;SDS011;1809;48.470;9.226;2022-10-17T03:11:07;3.93;;;3.27;;
3589;SDS011;1809;48.470;9.226;2022-10-17T03:13:33;3.10;;;1.97;;
3589;SDS011;1809;48.470;9.226;2022-10-17T03:15:58;2.13;;;2.00;;
3589;SDS011;1809;48.470;9.226;2022-10-17T03:18:24;4.77;;;2.57;;
3589;SDS011;1809;48.470;9.226;2022-10-17T03:20:49;2.83;;;2.00;;
3589;SDS011;1809;48.470;9.226;2022-10-17T03:23:15;3.10;;;2.40;;
3589;SDS011;1809;48.470;9.226;2022-10-17T03:25:40;7.30;;;2.80;;
3589;SDS011;1809;48.470;9.226;2022-10-17T03:28:06;3.10;;;2.80;;
3589;SDS011;1809;48.470;9.226;2022-10-17T03:30:32;5.00;;;2.60;;
3589;SDS011;1809;48.470;9.226;2022-10-17T03:32:57;3.97;;;2.90;;
3589;SDS011;1809;48.470;9.226;2022-10-17T03:35:24;5.60;;;3.03;;
3589;SDS011;1809;48.470;9.226;2022-10-17T03:37:50;6.30;;;2.73;;
3589;SDS011;1809;48.470;9.226;2022-10-17T03:40:15;4.40;;;2.80;;
3589;SDS011;1809;48.470;9.226;2022-10-17T03:42:41;2.47;;;2.23;;
3589;SDS011;1809;48.470;9.226;2022-10-17T03:45:06;8.80;;;2.90;;
3589;SDS011;1809;48.470;9.226;2022-10-17T03:47:32;2.60;;;2.20;;
3589;SDS011;1809;48.470;9.226;2022-10-17T03:49:58;3.60;;;2.17;;
3589;SDS011;1809;48.470;9.226;2022-10-17T03:52:23;11.50;;;2.53;;
3589;SDS011;1809;48.470;9.226;2022-10-17T03:54:49;6.00;;;2.70;;
3589;SDS011;1809;48.470;9.226;2022-10-17T03:57:15;9.63;;;3.20;;
3589;SDS011;1809;48.470;9.226;2022-10-17T03:59:41;4.60;;;4.20;;
3589;SDS011;1809;48.470;9.226;2022-10-17T04:02:06;3.80;;;3.57;;
3589;SDS011;1809;48.470;9.226;2022-10-17T04:04:32;9.53;;;4.60;;
3589;SDS011;1809;48.470;9.226;2022-10-17T04:06:57;5.17;;;4.13;;
3589;SDS011;1809;48.470;9.226;2022-10-17T04:09:22;4.07;;;3.67;;
3589;SDS011;1809;48.470;9.226;2022-10-17T04:11:47;6.00;;;4.43;;
3589;SDS011;1809;48.470;9.226;2022-10-17T04:14:13;7.00;;;2.80;;
3589;SDS011;1809;48.470;9.226;2022-10-17T04:16:38;7.20;;;3.00;;
3589;SDS011;1809;48.470;9.226;2022-10-17T04:19:04;3.23;;;3.03;;
3589;SDS011;1809;48.470;9.226;2022-10-17T04:21:29;2.90;;;2.70;;
3589;SDS011;1809;48.470;9.226;2022-10-17T04:23:55;8.83;;;3.20;;
3589;SDS011;1809;48.470;9.226;2022-10-17T04:26:24;3.30;;;2.80;;
3589;SDS011;1809;48.470;9.226;2022-10-17T04:28:51;3.87;;;3.37;;
3589;SDS011;1809;48.470;9.226;2022-10-17T04:31:17;4.17;;;2.87;;
3589;SDS011;1809;48.470;9.226;2022-10-17T04:33:42;6.57;;;3.40;;
3589;SDS011;1809;48.470;9.226;2022-10-17T04:36:11;3.00;;;2.80;;
3589;SDS011;1809;48.470;9.226;2022-10-17T04:38:39;3.00;;;2.67;;
3589;SDS011;1809;48.470;9.226;2022-10-17T04:41:05;5.90;;;2.77;;
3589;SDS011;1809;48.470;9.226;2022-10-17T04:43:33;4.97;;;3.90;;
3589;SDS011;1809;48.470;9.226;2022-10-17T04:46:01;4.00;;;3.70;;
3589;SDS011;1809;48.470;9.226;2022-10-17T04:48:28;3.70;;;3.43;;
3589;SDS011;1809;48.470;9.226;2022-10-17T04:50:59;7.70;;;4.83;;
3589;SDS011;1809;48.470;9.226;2022-10-17T04:53:27;5.20;;;4.27;;
3589;SDS011;1809;48.470;9.226;2022-10-17T04:55:54;6.77;;;5.27;;
3589;SDS011;1809;48.470;9.226;2022-10-17T04:58:19;4.93;;;4.53;;
3589;SDS011;1809;48.470;9.226;2022-10-17T05:00:45;5.40;;;4.37;;
3589;SDS011;1809;48.470;9.226;2022-10-17T05:03:11;4.53;;;4.13;;
3589;SDS011;1809;48.470;9.226;2022-10-17T05:05:37;4.43;;;4.03;;
3589;SDS011;1809;48.470;9.226;2022-10-17T05:08:03;4.53;;;4.23;;
3589;SDS011;1809;48.470;9.226;2022-10-17T05:10:29;5.10;;;4.20;;
3589;SDS011;1809;48.470;9.226;2022-10-17T05:12:59;4.17;;;3.87;;
3589;SDS011;1809;48.470;9.226;2022-10-17T05:15:24;5.83;;;4.50;;
3589;SDS011;1809;48.470;9.226;2022-10-17T05:17:52;7.50;;;3.93;;
3589;SDS011;1809;48.470;9.226;2022-10-17T05:20:19;7.67;;;3.63;;
3589;SDS011;1809;48.470;9.226;2022-10-17T05:22:44;5.07;;;3.90;;
3589;SDS011;1809;48.470;9.226;2022-10-17T05:25:09;3.83;;;3.40;;
3589;SDS011;1809;48.470;9.226;2022-10-17T05:27:34;4.57;;;3.80;;
3589;SDS011;1809;48.470;9.226;2022-10-17T05:30:00;3.77;;;3.47;;
3589;SDS011;1809;48.470;9.226;2022-10-17T05:32:28;6.47;;;4.40;;
3589;SDS011;1809;48.470;9.226;2022-10-17T05:34:53;5.23;;;4.37;;
3589;SDS011;1809;48.470;9.226;2022-10-17T05:37:19;4.27;;;3.97;;
3589;SDS011;1809;48.470;9.226;2022-10-17T05:39:44;6.40;;;3.70;;
3589;SDS011;1809;48.470;9.226;2022-10-17T05:42:09;8.70;;;4.83;;
3589;SDS011;1809;48.470;9.226;2022-10-17T05:44:35;6.03;;;5.43;;
3589;SDS011;1809;48.470;9.226;2022-10-17T05:47:00;5.30;;;4.80;;
3589;SDS011;1809;48.470;9.226;2022-10-17T05:49:25;5.23;;;4.70;;
3589;SDS011;1809;48.470;9.226;2022-10-17T05:51:51;11.20;;;8.30;;
3589;SDS011;1809;48.470;9.226;2022-10-17T05:54:16;7.97;;;6.93;;
3589;SDS011;1809;48.470;9.226;2022-10-17T05:56:41;9.53;;;6.33;;
3589;SDS011;1809;48.470;9.226;2022-10-17T05:59:07;7.97;;;5.10;;
3589;SDS011;1809;48.470;9.226;2022-10-17T06:01:32;7.20;;;5.10;;
3589;SDS011;1809;48.470;9.226;2022-10-17T06:03:57;6.67;;;5.40;;
3589;SDS011;1809;48.470;9.226;2022-10-17T06:06:23;6.37;;;4.03;;
3589;SDS011;1809;48.470;9.226;2022-10-17T06:08:48;7.00;;;5.30;;
3589;SDS011;1809;48.470;9.226;2022-10-17T06:11:13;6.33;;;5.63;;
3589;SDS011;1809;48.470;9.226;2022-10-17T06:13:39;6.47;;;4.87;;
3589;SDS011;1809;48.470;9.226;2022-10-17T06:16:05;7.60;;;5.00;;
3589;SDS011;1809;48.470;9.226;2022-10-17T06:18:33;5.13;;;4.63;;
3589;SDS011;1809;48.470;9.226;2022-10-17T06:21:09;7.63;;;4.30;;
3589;SDS011;1809;48.470;9.226;2022-10-17T06:23:35;7.20;;;4.80;;
3589;SDS011;1809;48.470;9.226;2022-10-17T06:26:01;7.63;;;4.30;;
3589;SDS011;1809;48.470;9.226;2022-10-17T06:28:29;6.33;;;4.37;;
3589;SDS011;1809;48.470;9.226;2022-10-17T06:30:54;8.30;;;3.90;;
3589;SDS011;1809;48.470;9.226;2022-10-17T06:33:19;9.33;;;4.77;;
3589;SDS011;1809;48.470;9.226;2022-10-17T06:35:54;9.80;;;5.73;;
3589;SDS011;1809;48.470;9.226;2022-10-17T06:38:20;9.73;;;5.73;;
3589;SDS011;1809;48.470;9.226;2022-10-17T06:40:46;10.87;;;3.27;;
3589;SDS011;1809;48.470;9.226;2022-10-17T06:43:11;7.90;;;5.30;;
3589;SDS011;1809;48.470;9.226;2022-10-17T06:45:40;15.47;;;6.70;;
3589;SDS011;1809;48.470;9.226;2022-10-17T06:48:05;12.97;;;7.03;;
3589;SDS011;1809;48.470;9.226;2022-10-17T06:50:32;16.90;;;7.50;;
3589;SDS011;1809;48.470;9.226;2022-10-17T06:53:03;13.53;;;5.77;;
3589;SDS011;1809;48.470;9.226;2022-10-17T06:55:30;11.10;;;5.80;;
3589;SDS011;1809;48.470;9.226;2022-10-17T06:57:55;8.20;;;5.87;;
3589;SDS011;1809;48.470;9.226;2022-10-17T07:00:21;12.10;;;6.80;;
3589;SDS011;1809;48.470;9.226;2022-10-17T07:02:47;14.40;;;6.67;;
3589;SDS011;1809;48.470;9.226;2022-10-17T07:05:13;10.73;;;5.40;;
3589;SDS011;1809;48.470;9.226;2022-10-17T07:07:39;22.60;;;7.93;;
3589;SDS011;1809;48.470;9.226;2022-10-17T07:10:04;32.80;;;7.63;;
3589;SDS011;1809;48.470;9.226;2022-10-17T07:12:32;15.07;;;5.30;;
3589;SDS011;1809;48.470;9.226;2022-10-17T07:14:59;12.67;;;6.20;;
3589;SDS011;1809;48.470;9.226;2022-10-17T07:17:24;5.70;;;4.63;;
3589;SDS011;1809;48.470;9.226;2022-10-17T07:19:55;8.93;;;4.03;;
3589;SDS011;1809;48.470;9.226;2022-10-17T07:22:21;12.13;;;4.27;;
3589;SDS011;1809;48.470;9.226;2022-10-17T07:24:46;5.43;;;3.77;;
3589;SDS011;1809;48.470;9.226;2022-10-17T07:27:12;5.43;;;3.97;;
3589;SDS011;1809;48.470;9.226;2022-10-17T07:29:38;14.10;;;5.30;;
3589;SDS011;1809;48.470;9.226;2022-10-17T07:32:04;8.33;;;4.60;;
3589;SDS011;1809;48.470;9.226;2022-10-17T07:34:35;16.57;;;5.60;;
3589;SDS011;1809;48.470;9.226;2022-10-17T07:37:00;8.33;;;4.50;;
3589;SDS011;1809;48.470;9.226;2022-10-17T07:39:26;5.10;;;4.47;;
3589;SDS011;1809;48.470;9.226;2022-10-17T07:41:51;10.87;;;4.57;;
3589;SDS011;1809;48.470;9.226;2022-10-17T07:44:17;11.50;;;4.20;;
3589;SDS011;1809;48.470;9.226;2022-10-17T07:46:42;5.73;;;3.80;;
3589;SDS011;1809;48.470;9.226;2022-10-17T07:49:07;11.37;;;4.23;;
3589;SDS011;1809;48.470;9.226;2022-10-17T07:51:33;10.37;;;5.07;;
3589;SDS011;1809;48.470;9.226;2022-10-17T07:53:58;11.23;;;4.90;;
3589;SDS011;1809;48.470;9.226;2022-10-17T07:56:24;6.97;;;3.80;;
3589;SDS011;1809;48.470;9.226;2022-10-17T07:58:49;7.83;;;3.73;;
3589;SDS011;1809;48.470;9.226;2022-10-17T08:01:16;15.90;;;4.23;;
3589;SDS011;1809;48.470;9.226;2022-10-17T08:03:45;6.93;;;4.40;;
3589;SDS011;1809;48.470;9.226;2022-10-17T08:06:11;6.67;;;3.70;;
3589;SDS011;1809;48.470;9.226;2022-10-17T08:08:37;3.60;;;3.40;;
3589;SDS011;1809;48.470;9.226;2022-10-17T08:11:03;7.30;;;4.37;;
3589;SDS011;1809;48.470;9.226;2022-10-17T08:13:30;6.33;;;3.77;;
3589;SDS011;1809;48.470;9.226;2022-10-17T08:16:02;5.00;;;3.50;;
3589;SDS011;1809;48.470;9.226;2022-10-17T08:18:30;6.70;;;3.97;;
3589;SDS011;1809;48.470;9.226;2022-10-17T08:20:58;22.13;;;4.27;;
3589;SDS011;1809;48.470;9.226;2022-10-17T08:23:24;18.57;;;3.90;;
3589;SDS011;1809;48.470;9.226;2022-10-17T08:25:49;5.77;;;3.27;;
3589;SDS011;1809;48.470;9.226;2022-10-17T08:28:14;9.60;;;3.73;;
3589;SDS011;1809;48.470;9.226;2022-10-17T08:30:40;32.60;;;3.63;;
3589;SDS011;1809;48.470;9.226;2022-10-17T08:33:05;10.53;;;2.90;;
3589;SDS011;1809;48.470;9.226;2022-10-17T08:35:30;6.70;;;3.80;;
3589;SDS011;1809;48.470;9.226;2022-10-17T08:37:57;6.40;;;3.57;;
3589;SDS011;1809;48.470;9.226;2022-10-17T08:40:25;10.60;;;3.87;;
3589;SDS011;1809;48.470;9.226;2022-10-17T08:45:53;9.03;;;3.10;;
3589;SDS011;1809;48.470;9.226;2022-10-17T08:48:24;7.87;;;3.20;;
3589;SDS011;1809;48.470;9.226;2022-10-17T08:50:56;7.67;;;3.10;;
3589;SDS011;1809;48.470;9.226;2022-10-17T08:53:28;6.47;;;2.30;;
3589;SDS011;1809;48.470;9.226;2022-10-17T08:55:54;9.53;;;2.63;;
3589;SDS011;1809;48.470;9.226;2022-10-17T08:58:28;8.37;;;2.73;;
3589;SDS011;1809;48.470;9.226;2022-10-17T09:01:04;2.90;;;2.70;;
3589;SDS011;1809;48.470;9.226;2022-10-17T09:06:21;3.10;;;2.60;;
3589;SDS011;1809;48.470;9.226;2022-10-17T09:09:17;3.17;;;2.97;;
3589;SDS011;1809;48.470;9.226;2022-10-17T09:11:54;10.47;;;3.20;;
3589;SDS011;1809;48.470;9.226;2022-10-17T09:19:27;3.30;;;3.10;;
3589;SDS011;1809;48.470;9.226;2022-10-17T09:21:59;6.40;;;3.10;;
3589;SDS011;1809;48.470;9.226;2022-10-17T09:24:38;15.77;;;3.80;;
3589;SDS011;1809;48.470;9.226;2022-10-17T09:27:24;6.70;;;3.00;;
3589;SDS011;1809;48.470;9.226;2022-10-17T09:29:51;6.50;;;2.63;;
3589;SDS011;1809;48.470;9.226;2022-10-17T09:32:24;4.50;;;3.37;;
3589;SDS011;1809;48.470;9.226;2022-10-17T09:34:50;3.10;;;2.90;;
3589;SDS011;1809;48.470;9.226;2022-10-17T09:37:17;4.60;;;2.97;;
3589;SDS011;1809;48.470;9.226;2022-10-17T09:39:43;7.90;;;2.93;;
3589;SDS011;1809;48.470;9.226;2022-10-17T09:42:12;7.90;;;3.10;;
3589;SDS011;1809;48.470;9.226;2022-10-17T09:45:03;4.10;;;3.00;;
3589;SDS011;1809;48.470;9.226;2022-10-17T09:47:34;3.60;;;3.13;;
3589;SDS011;1809;48.470;9.226;2022-10-17T09:50:13;4.00;;;3.00;;
3589;SDS011;1809;48.470;9.226;2022-10-17T09:52:46;10.60;;;3.33;;
3589;SDS011;1809;48.470;9.226;2022-10-17T10:00:26;9.10;;;3.47;;
3589;SDS011;1809;48.470;9.226;2022-10-17T10:08:28;3.90;;;2.90;;
3589;SDS011;1809;48.470;9.226;2022-10-17T10:11:03;9.00;;;2.87;;
3589;SDS011;1809;48.470;9.226;2022-10-17T10:13:31;2.90;;;2.57;;
3589;SDS011;1809;48.470;9.226;2022-10-17T10:18:48;12.77;;;3.03;;
3589;SDS011;1809;48.470;9.226;2022-10-17T10:21:15;9.63;;;2.90;;
3589;SDS011;1809;48.470;9.226;2022-10-17T10:23:45;6.50;;;2.40;;
3589;SDS011;1809;48.470;9.226;2022-10-17T10:32:08;2.30;;;2.20;;
3589;SDS011;1809;48.470;9.226;2022-10-17T10:34:36;3.20;;;2.73;;
3589;SDS011;1809;48.470;9.226;2022-10-17T10:37:18;3.63;;;2.30;;
3589;SDS011;1809;48.470;9.226;2022-10-17T10:39:50;3.47;;;2.40;;
3589;SDS011;1809;48.470;9.226;2022-10-17T10:42:27;3.40;;;2.50;;
3589;SDS011;1809;48.470;9.226;2022-10-17T10:44:57;5.20;;;2.43;;
3589;SDS011;1809;48.470;9.226;2022-10-17T10:47:39;3.10;;;2.20;;
3589;SDS011;1809;48.470;9.226;2022-10-17T10:50:17;4.17;;;2.50;;
3589;SDS011;1809;48.470;9.226;2022-10-17T10:55:47;2.60;;;1.80;;
3589;SDS011;1809;48.470;9.226;2022-10-17T11:00:51;3.20;;;1.93;;
3589;SDS011;1809;48.470;9.226;2022-10-17T11:03:20;5.70;;;3.13;;
3589;SDS011;1809;48.470;9.226;2022-10-17T11:06:26;14.83;;;2.83;;
3589;SDS011;1809;48.470;9.226;2022-10-17T11:08:58;4.63;;;2.03;;
3589;SDS011;1809;48.470;9.226;2022-10-17T11:11:44;6.30;;;2.57;;
3589;SDS011;1809;48.470;9.226;2022-10-17T11:14:29;5.77;;;2.10;;
3589;SDS011;1809;48.470;9.226;2022-10-17T11:17:00;3.40;;;2.50;;
3589;SDS011;1809;48.470;9.226;2022-10-17T11:19:34;2.83;;;2.63;;
3589;SDS011;1809;48.470;9.226;2022-10-17T11:22:19;8.70;;;2.20;;
3589;SDS011;1809;48.470;9.226;2022-10-17T11:25:05;5.90;;;2.40;;
3589;SDS011;1809;48.470;9.226;2022-10-17T11:27:44;3.10;;;2.40;;
3589;SDS011;1809;48.470;9.226;2022-10-17T11:30:15;7.53;;;3.40;;
3589;SDS011;1809;48.470;9.226;2022-10-17T11:32:51;6.27;;;3.03;;
3589;SDS011;1809;48.470;9.226;2022-10-17T11:35:40;8.40;;;2.20;;
3589;SDS011;1809;48.470;9.226;2022-10-17T11:38:15;4.40;;;2.70;;
3589;SDS011;1809;48.470;9.226;2022-10-17T11:40:48;5.17;;;2.80;;
3589;SDS011;1809;48.470;9.226;2022-10-17T11:49:23;5.00;;;2.43;;
3589;SDS011;1809;48.470;9.226;2022-10-17T11:51:53;4.47;;;2.87;;
3589;SDS011;1809;48.470;9.226;2022-10-17T11:54:32;3.00;;;2.70;;
3589;SDS011;1809;48.470;9.226;2022-10-17T12:02:44;4.90;;;3.23;;
3589;SDS011;1809;48.470;9.226;2022-10-17T12:08:19;3.70;;;3.23;;
3589;SDS011;1809;48.470;9.226;2022-10-17T12:10:58;3.73;;;2.70;;
3589;SDS011;1809;48.470;9.226;2022-10-17T12:18:44;3.83;;;3.40;;
3589;SDS011;1809;48.470;9.226;2022-10-17T12:21:15;7.47;;;3.37;;
3589;SDS011;1809;48.470;9.226;2022-10-17T12:23:42;3.07;;;2.87;;
3589;SDS011;1809;48.470;9.226;2022-10-17T12:26:25;5.50;;;4.83;;
3589;SDS011;1809;48.470;9.226;2022-10-17T12:28:52;5.67;;;5.07;;
3589;SDS011;1809;48.470;9.226;2022-10-17T12:33:55;8.33;;;3.50;;
3589;SDS011;1809;48.470;9.226;2022-10-17T12:46:46;5.37;;;3.43;;
3589;SDS011;1809;48.470;9.226;2022-10-17T12:54:45;2.23;;;2.13;;
3589;SDS011;1809;48.470;9.226;2022-10-17T12:59:45;3.47;;;1.90;;
3589;SDS011;1809;48.470;9.226;2022-10-17T13:02:16;5.80;;;1.83;;
3589;SDS011;1809;48.470;9.226;2022-10-17T13:04:45;2.30;;;1.50;;
3589;SDS011;1809;48.470;9.226;2022-10-17T13:07:18;5.20;;;1.47;;
3589;SDS011;1809;48.470;9.226;2022-10-17T13:09:46;2.40;;;1.63;;
3589;SDS011;1809;48.470;9.226;2022-10-17T13:12:18;4.93;;;1.93;;
3589;SDS011;1809;48.470;9.226;2022-10-17T13:14:49;4.30;;;1.90;;
3589;SDS011;1809;48.470;9.226;2022-10-17T13:17:23;5.40;;;1.70;;
3589;SDS011;1809;48.470;9.226;2022-10-17T13:19:51;1.90;;;1.73;;
3589;SDS011;1809;48.470;9.226;2022-10-17T13:22:21;1.80;;;1.70;;
3589;SDS011;1809;48.470;9.226;2022-10-17T13:24:49;4.03;;;1.13;;
3589;SDS011;1809;48.470;9.226;2022-10-17T13:27:49;2.27;;;1.20;;
3589;SDS011;1809;48.470;9.226;2022-10-17T13:33:02;5.90;;;1.63;;
3589;SDS011;1809;48.470;9.226;2022-10-17T13:35:40;1.30;;;1.20;;
3589;SDS011;1809;48.470;9.226;2022-10-17T13:38:05;1.97;;;1.53;;
3589;SDS011;1809;48.470;9.226;2022-10-17T13:40:36;6.60;;;1.30;;
3589;SDS011;1809;48.470;9.226;2022-10-17T13:43:08;4.50;;;1.30;;
3589;SDS011;1809;48.470;9.226;2022-10-17T13:45:46;8.17;;;1.47;;
3589;SDS011;1809;48.470;9.226;2022-10-17T13:48:19;2.53;;;1.40;;
3589;SDS011;1809;48.470;9.226;2022-10-17T13:50:50;5.67;;;1.73;;
3589;SDS011;1809;48.470;9.226;2022-10-17T13:53:32;2.40;;;1.63;;
3589;SDS011;1809;48.470;9.226;2022-10-17T13:56:04;4.63;;;1.77;;
3589;SDS011;1809;48.470;9.226;2022-10-17T14:01:16;1.33;;;1.23;;
3589;SDS011;1809;48.470;9.226;2022-10-17T14:03:43;5.13;;;1.90;;
3589;SDS011;1809;48.470;9.226;2022-10-17T14:06:13;2.67;;;1.50;;
3589;SDS011;1809;48.470;9.226;2022-10-17T14:13:54;6.17;;;1.50;;
3589;SDS011;1809;48.470;9.226;2022-10-17T14:16:21;1.77;;;1.63;;
3589;SDS011;1809;48.470;9.226;2022-10-17T14:18:49;6.63;;;1.60;;
3589;SDS011;1809;48.470;9.226;2022-10-17T14:21:20;1.97;;;1.67;;
3589;SDS011;1809;48.470;9.226;2022-10-17T14:23:48;7.07;;;1.43;;
3589;SDS011;1809;48.470;9.226;2022-10-17T14:26:18;1.50;;;1.40;;
3589;SDS011;1809;48.470;9.226;2022-10-17T14:28:46;1.70;;;1.50;;
3589;SDS011;1809;48.470;9.226;2022-10-17T14:31:19;2.70;;;1.30;;
3589;SDS011;1809;48.470;9.226;2022-10-17T14:33:45;4.97;;;1.30;;
3589;SDS011;1809;48.470;9.226;2022-10-17T14:36:12;4.67;;;1.60;;
3589;SDS011;1809;48.470;9.226;2022-10-17T14:38:43;6.53;;;1.80;;
3589;SDS011;1809;48.470;9.226;2022-10-17T14:43:56;1.67;;;1.43;;
3589;SDS011;1809;48.470;9.226;2022-10-17T14:46:24;15.57;;;2.57;;
3589;SDS011;1809;48.470;9.226;2022-10-17T14:48:50;1.20;;;1.20;;
3589;SDS011;1809;48.470;9.226;2022-10-17T14:51:18;4.27;;;1.87;;
3589;SDS011;1809;48.470;9.226;2022-10-17T14:54:00;6.57;;;1.77;;
3589;SDS011;1809;48.470;9.226;2022-10-17T14:56:49;2.13;;;1.60;;
3589;SDS011;1809;48.470;9.226;2022-10-17T14:59:16;2.93;;;1.40;;
3589;SDS011;1809;48.470;9.226;2022-10-17T15:01:46;6.93;;;1.97;;
3589;SDS011;1809;48.470;9.226;2022-10-17T15:04:13;8.83;;;1.80;;
3589;SDS011;1809;48.470;9.226;2022-10-17T15:06:38;2.80;;;1.90;;
3589;SDS011;1809;48.470;9.226;2022-10-17T15:09:04;7.20;;;1.97;;
3589;SDS011;1809;48.470;9.226;2022-10-17T15:11:30;4.40;;;2.40;;
3589;SDS011;1809;48.470;9.226;2022-10-17T15:13:55;3.43;;;1.57;;
3589;SDS011;1809;48.470;9.226;2022-10-17T15:16:22;2.63;;;2.30;;
3589;SDS011;1809;48.470;9.226;2022-10-17T15:18:54;4.20;;;2.60;;
3589;SDS011;1809;48.470;9.226;2022-10-17T15:21:20;5.00;;;2.33;;
3589;SDS011;1809;48.470;9.226;2022-10-17T15:23:47;3.30;;;2.20;;
3589;SDS011;1809;48.470;9.226;2022-10-17T15:26:14;3.10;;;2.67;;
3589;SDS011;1809;48.470;9.226;2022-10-17T15:28:44;8.33;;;2.07;;
3589;SDS011;1809;48.470;9.226;2022-10-17T15:31:11;4.30;;;2.50;;
3589;SDS011;1809;48.470;9.226;2022-10-17T15:33:38;6.20;;;2.33;;
3589;SDS011;1809;48.470;9.226;2022-10-17T15:36:04;4.90;;;1.63;;
3589;SDS011;1809;48.470;9.226;2022-10-17T15:38:40;3.07;;;2.50;;
3589;SDS011;1809;48.470;9.226;2022-10-17T15:41:07;3.80;;;2.50;;
3589;SDS011;1809;48.470;9.226;2022-10-17T15:43:34;2.50;;;1.90;;
3589;SDS011;1809;48.470;9.226;2022-10-17T15:45:59;2.00;;;1.80;;
3589;SDS011;1809;48.470;9.226;2022-10-17T15:48:26;4.50;;;2.10;;
3589;SDS011;1809;48.470;9.226;2022-10-17T15:50:54;3.47;;;2.30;;
3589;SDS011;1809;48.470;9.226;2022-10-17T15:53:20;3.13;;;2.03;;
3589;SDS011;1809;48.470;9.226;2022-10-17T15:55:46;12.43;;;1.90;;
3589;SDS011;1809;48.470;9.226;2022-10-17T15:58:15;5.73;;;1.83;;
3589;SDS011;1809;48.470;9.226;2022-10-17T16:00:42;5.33;;;2.07;;
3589;SDS011;1809;48.470;9.226;2022-10-17T16:03:08;4.30;;;2.10;;
3589;SDS011;1809;48.470;9.226;2022-10-17T16:05:34;6.87;;;2.23;;
3589;SDS011;1809;48.470;9.226;2022-10-17T16:07:59;3.63;;;1.80;;
3589;SDS011;1809;48.470;9.226;2022-10-17T16:10:25;2.70;;;2.50;;
3589;SDS011;1809;48.470;9.226;2022-10-17T16:12:50;5.00;;;2.60;;
3589;SDS011;1809;48.470;9.226;2022-10-17T16:15:21;5.40;;;2.40;;
3589;SDS011;1809;48.470;9.226;2022-10-17T16:17:48;7.57;;;2.47;;
3589;SDS011;1809;48.470;9.226;2022-10-17T16:20:14;9.30;;;2.17;;
3589;SDS011;1809;48.470;9.226;2022-10-17T16:22:41;5.00;;;2.50;;
3589;SDS011;1809;48.470;9.226;2022-10-17T16:25:15;2.70;;;2.43;;
3589;SDS011;1809;48.470;9.226;2022-10-17T16:27:46;13.43;;;2.93;;
3589;SDS011;1809;48.470;9.226;2022-10-17T16:30:12;6.50;;;2.67;;
3589;SDS011;1809;48.470;9.226;2022-10-17T16:32:38;13.57;;;2.40;;
3589;SDS011;1809;48.470;9.226;2022-10-17T16:35:04;14.10;;;3.30;;
3589;SDS011;1809;48.470;9.226;2022-10-17T16:37:31;5.10;;;3.80;;
3589;SDS011;1809;48.470;9.226;2022-10-17T16:39:56;5.03;;;3.00;;
3589;SDS011;1809;48.470;9.226;2022-10-17T16:42:22;12.47;;;2.87;;
3589;SDS011;1809;48.470;9.226;2022-10-17T16:44:47;11.80;;;3.23;;
3589;SDS011;1809;48.470;9.226;2022-10-17T16:47:13;16.83;;;2.90;;
3589;SDS011;1809;48.470;9.226;2022-10-17T16:49:39;6.30;;;2.43;;
3589;SDS011;1809;48.470;9.226;2022-10-17T16:52:05;7.17;;;2.50;;
3589;SDS011;1809;48.470;9.226;2022-10-17T16:54:30;4.23;;;2.50;;
3589;SDS011;1809;48.470;9.226;2022-10-17T16:56:55;4.20;;;3.03;;
3589;SDS011;1809;48.470;9.226;2022-10-17T16:59:24;9.03;;;2.70;;
3589;SDS011;1809;48.470;9.226;2022-10-17T17:01:49;4.50;;;2.97;;
3589;SDS011;1809;48.470;9.226;2022-10-17T17:04:15;12.20;;;3.27;;
3589;SDS011;1809;48.470;9.226;2022-10-17T17:06:41;4.60;;;2.83;;
3589;SDS011;1809;48.470;9.226;2022-10-17T17:09:06;8.83;;;3.03;;
3589;SDS011;1809;48.470;9.226;2022-10-17T17:11:33;4.97;;;3.60;;
3589;SDS011;1809;48.470;9.226;2022-10-17T17:14:00;9.67;;;3.20;;
3589;SDS011;1809;48.470;9.226;2022-10-17T17:16:26;5.33;;;2.80;;
3589;SDS011;1809;48.470;9.226;2022-10-17T17:18:57;13.73;;;3.17;;
3589;SDS011;1809;48.470;9.226;2022-10-17T17:21:24;3.80;;;3.47;;
3589;SDS011;1809;48.470;9.226;2022-10-17T17:23:51;9.90;;;3.40;;
3589;SDS011;1809;48.470;9.226;2022-10-17T17:26:19;10.73;;;4.43;;
3589;SDS011;1809;48.470;9.226;2022-10-17T17:28:47;15.23;;;4.20;;
3589;SDS011;1809;48.470;9.226;2022-10-17T17:31:16;13.17;;;4.30;;
3589;SDS011;1809;48.470;9.226;2022-10-17T17:33:43;7.23;;;3.40;;